Time;durP1;ratioP1;P1;durP2;ratioP2;P2;SDS_P1;SDS_P2;PMS_P1;PMS_P2;Temp;Humidity;BMP_temperature;BMP_pressure;BME280_temperature;BME280_humidity;BME280_pressure;Samples;Min_cycle;Max_cycle;Signal;HPM_P1;HPM_P2
2023/12/13 00:00:31;;;;;;;7.25;2.70;;;;;;;3.94;100.00;99391.16;4982153;28;20057;-82
2023/12/13 00:03:01;;;;;;;3.20;2.30;;;;;;;3.88;100.00;99401.91;4977351;28;20051;-79
2023/12/13 00:05:29;;;;;;;4.20;2.80;;;;;;;3.82;100.00;99400.25;4980020;28;20038;-80
2023/12/13 00:08:02;;;;;;;2.20;1.98;;;;;;;3.86;100.00;99397.84;4976919;28;20058;-80
2023/12/13 00:10:31;;;;;;;3.80;2.47;;;;;;;3.81;100.00;99390.59;4985179;28;20059;-80
2023/12/13 00:13:05;;;;;;;3.17;2.60;;;;;;;3.83;100.00;99384.94;4980551;28;20541;-80
2023/12/13 00:15:33;;;;;;;2.97;2.28;;;;;;;3.78;100.00;99384.91;4977346;28;20050;-79
2023/12/13 00:18:01;;;;;;;3.95;2.15;;;;;;;3.80;100.00;99375.50;4978237;28;20050;-80
2023/12/13 00:20:29;;;;;;;4.70;3.00;;;;;;;3.82;100.00;99372.53;4980839;28;20058;-80
2023/12/13 00:23:03;;;;;;;4.38;2.58;;;;;;;3.72;100.00;99379.53;4984563;28;20388;-80
2023/12/13 00:25:31;;;;;;;3.17;2.22;;;;;;;3.79;100.00;99375.78;4978806;28;20050;-80
2023/12/13 00:28:05;;;;;;;2.45;2.15;;;;;;;3.88;100.00;99369.59;4996091;28;20050;-80
2023/12/13 00:30:40;;;;;;;3.88;2.40;;;;;;;3.77;100.00;99367.16;4983329;28;20066;-80
2023/12/13 00:33:13;;;;;;;4.22;2.58;;;;;;;3.75;100.00;99365.53;4986660;28;20046;-80
2023/12/13 00:35:41;;;;;;;3.05;1.90;;;;;;;3.76;100.00;99358.28;4986845;28;20050;-80
2023/12/13 00:38:10;;;;;;;3.65;2.45;;;;;;;3.77;100.00;99364.47;4980440;28;20400;-79
2023/12/13 00:40:43;;;;;;;2.63;2.05;;;;;;;3.75;100.00;99360.13;4983455;28;20050;-80
2023/12/13 00:43:17;;;;;;;2.08;1.85;;;;;;;3.71;100.00;99359.06;4980687;28;20042;-80
2023/12/13 00:45:51;;;;;;;1.88;1.60;;;;;;;3.70;100.00;99356.63;4981274;28;20398;-80
2023/12/13 00:48:24;;;;;;;4.25;2.60;;;;;;;3.70;100.00;99365.53;4985038;28;20061;-79
2023/12/13 00:50:52;;;;;;;3.22;2.25;;;;;;;3.71;100.00;99352.88;4986483;28;20069;-79
2023/12/13 00:53:25;;;;;;;1.92;1.55;;;;;;;3.76;100.00;99347.50;4977817;28;20046;-80
2023/12/13 00:55:59;;;;;;;2.20;1.90;;;;;;;3.78;100.00;99348.03;4986359;28;20054;-80
2023/12/13 00:58:33;;;;;;;3.03;2.17;;;;;;;3.74;100.00;99344.28;4982629;28;20042;-80
2023/12/13 01:01:01;;;;;;;2.47;1.85;;;;;;;3.64;100.00;99349.66;4980219;28;20392;-79
2023/12/13 01:03:35;;;;;;;3.08;2.38;;;;;;;3.59;100.00;99345.06;4981678;28;20650;-79
2023/12/13 01:06:09;;;;;;;3.33;2.30;;;;;;;3.55;100.00;99336.72;4983489;28;20051;-80
2023/12/13 01:08:37;;;;;;;2.20;1.77;;;;;;;3.60;100.00;99338.59;4987112;28;20061;-79
2023/12/13 01:11:11;;;;;;;2.00;1.67;;;;;;;3.66;100.00;99334.03;4980927;28;20066;-79
2023/12/13 01:13:41;;;;;;;1.92;1.75;;;;;;;3.58;100.00;99336.19;4982547;28;20534;-80
2023/12/13 01:16:14;;;;;;;1.70;1.55;;;;;;;3.60;100.00;99333.22;4979336;28;20058;-80
2023/12/13 01:18:47;;;;;;;2.33;1.95;;;;;;;3.60;100.00;99329.72;4983305;28;20050;-79
2023/12/13 01:21:20;;;;;;;3.78;1.90;;;;;;;3.65;100.00;99329.75;4979149;28;20502;-79
2023/12/13 01:23:53;;;;;;;2.53;1.98;;;;;;;3.68;100.00;99326.53;4984994;28;20066;-80
2023/12/13 01:26:22;;;;;;;2.92;2.20;;;;;;;3.64;100.00;99317.38;4982015;28;20058;-79
2023/12/13 01:28:56;;;;;;;2.60;2.10;;;;;;;3.59;100.00;99331.63;4982782;28;20046;-80
2023/12/13 01:31:29;;;;;;;2.83;2.03;;;;;;;3.54;100.00;99328.91;4986153;28;20056;-79
2023/12/13 01:33:57;;;;;;;2.60;2.00;;;;;;;3.56;100.00;99334.81;4988338;28;20050;-80
2023/12/13 01:36:26;;;;;;;2.85;2.10;;;;;;;3.65;100.00;99337.81;4989678;28;20047;-80
2023/12/13 01:38:59;;;;;;;2.08;1.83;;;;;;;3.59;100.00;99339.69;4979875;28;20061;-80
2023/12/13 01:41:32;;;;;;;2.92;1.90;;;;;;;3.56;100.00;99345.59;4988456;28;20054;-80
2023/12/13 01:44:06;;;;;;;2.97;2.05;;;;;;;3.56;100.00;99338.34;4991006;28;20050;-79
2023/12/13 01:46:40;;;;;;;2.08;1.88;;;;;;;3.56;100.00;99332.13;4988949;28;20050;-79
2023/12/13 01:49:11;;;;;;;3.17;2.53;;;;;;;3.50;100.00;99336.69;4983944;28;20054;-80
2023/12/13 01:51:46;;;;;;;2.63;2.13;;;;;;;3.59;100.00;99337.00;4988679;28;20054;-79
2023/12/13 01:54:19;;;;;;;2.80;2.30;;;;;;;3.55;100.00;99344.00;4983785;28;20483;-80
2023/12/13 01:56:53;;;;;;;3.03;2.28;;;;;;;3.51;100.00;99340.22;4986537;28;20046;-79
2023/12/13 01:59:28;;;;;;;3.88;2.92;;;;;;;3.45;100.00;99339.38;4989383;28;20533;-80
2023/12/13 02:02:02;;;;;;;2.38;2.00;;;;;;;3.46;100.00;99332.13;4988783;28;20054;-79
2023/12/13 02:04:35;;;;;;;2.17;1.98;;;;;;;3.45;100.00;99334.00;4982747;28;20050;-79
2023/12/13 02:07:09;;;;;;;3.08;2.10;;;;;;;3.48;100.00;99330.78;4986735;28;20047;-80
2023/12/13 02:09:42;;;;;;;3.60;2.55;;;;;;;3.49;100.00;99327.00;4984295;28;20054;-80
2023/12/13 02:12:10;;;;;;;2.90;2.20;;;;;;;3.56;100.00;99321.38;4982136;28;20564;-80
2023/12/13 02:14:41;;;;;;;2.80;1.90;;;;;;;3.46;100.00;99316.00;4984902;28;20058;-79
2023/12/13 02:17:14;;;;;;;2.97;2.00;;;;;;;3.38;100.00;99311.94;4990576;28;20062;-79
2023/12/13 02:19:47;;;;;;;3.45;2.15;;;;;;;3.45;100.00;99309.78;4990933;28;20050;-79
2023/12/13 02:22:16;;;;;;;2.38;2.13;;;;;;;3.45;100.00;99311.69;4980695;28;20470;-79
2023/12/13 02:24:49;;;;;;;3.10;1.90;;;;;;;3.44;100.00;99302.81;4980150;28;20031;-79
2023/12/13 02:27:26;;;;;;;2.33;1.98;;;;;;;3.42;100.00;99304.16;4985585;28;20058;-79
2023/12/13 02:29:59;;;;;;;3.30;1.95;;;;;;;3.42;100.00;99306.84;4985253;28;20061;-79
2023/12/13 02:32:28;;;;;;;1.90;1.70;;;;;;;3.48;100.00;99306.59;4987246;28;20046;-80
2023/12/13 02:34:56;;;;;;;2.65;2.22;;;;;;;3.48;100.00;99311.13;4984879;28;20049;-80
2023/12/13 02:37:31;;;;;;;2.90;2.15;;;;;;;3.46;100.00;99316.00;4979652;28;20062;-79
2023/12/13 02:39:59;;;;;;;2.63;1.92;;;;;;;3.43;100.00;99303.88;4984960;28;20049;-80
2023/12/13 02:42:32;;;;;;;2.72;1.63;;;;;;;3.43;100.00;99311.94;4983219;28;20042;-79
2023/12/13 02:45:07;;;;;;;1.73;1.63;;;;;;;3.45;100.00;99304.41;4986146;28;20042;-79
2023/12/13 02:47:35;;;;;;;1.98;1.60;;;;;;;3.43;100.00;99313.84;4985989;28;20058;-79
2023/12/13 02:50:09;;;;;;;1.65;1.52;;;;;;;3.41;100.00;99306.00;4986604;28;20042;-79
2023/12/13 02:52:44;;;;;;;2.85;1.75;;;;;;;3.34;100.00;99310.84;4986546;28;20042;-80
2023/12/13 02:55:12;;;;;;;1.98;1.77;;;;;;;3.36;100.00;99312.19;4981673;28;20058;-80
2023/12/13 02:57:40;;;;;;;2.63;1.70;;;;;;;3.40;100.00;99307.09;4983853;28;20045;-80
2023/12/13 03:00:09;;;;;;;1.80;1.65;;;;;;;3.39;100.00;99306.28;4980344;28;20049;-79
2023/12/13 03:02:40;;;;;;;0.93;0.93;;;;;;;3.45;100.00;99303.59;4987058;28;20054;-80
2023/12/13 03:05:09;;;;;;;2.38;1.73;;;;;;;3.44;100.00;99296.59;4983030;28;20053;-79
2023/12/13 03:07:39;;;;;;;2.80;1.80;;;;;;;3.34;100.00;99300.09;4980593;28;20043;-80
2023/12/13 03:10:14;;;;;;;1.30;1.20;;;;;;;3.40;100.00;99296.34;4986896;28;20053;-80
2023/12/13 03:12:47;;;;;;;1.88;1.70;;;;;;;3.39;100.00;99292.03;4984487;28;20051;-79
2023/12/13 03:15:21;;;;;;;2.05;1.65;;;;;;;3.28;100.00;99290.41;4986886;28;20047;-80
2023/12/13 03:17:54;;;;;;;1.70;1.60;;;;;;;3.28;100.00;99290.41;5001077;28;20069;-80
2023/12/13 03:20:27;;;;;;;1.67;1.45;;;;;;;3.35;100.00;99282.88;4980608;28;20046;-80
2023/12/13 03:23:03;;;;;;;2.50;2.00;;;;;;;3.36;100.00;99289.88;4981405;28;20046;-79
2023/12/13 03:25:37;;;;;;;1.58;1.42;;;;;;;3.40;100.00;99280.22;4987125;28;20056;-80
2023/12/13 03:28:05;;;;;;;2.08;1.83;;;;;;;3.36;100.00;99274.56;4983304;28;20057;-80
2023/12/13 03:30:33;;;;;;;1.75;1.60;;;;;;;3.29;100.00;99278.59;4987237;28;20490;-80
2023/12/13 03:33:02;;;;;;;2.03;1.45;;;;;;;3.27;100.00;99268.06;4997125;28;20070;-80
2023/12/13 03:35:30;;;;;;;1.83;1.73;;;;;;;3.29;100.00;99273.22;4980481;28;20042;-80
2023/12/13 03:38:04;;;;;;;2.80;1.80;;;;;;;3.29;100.00;99265.94;4981111;28;20673;-79
2023/12/13 03:40:32;;;;;;;1.70;1.60;;;;;;;3.31;100.00;99265.66;4986019;28;20055;-80
2023/12/13 03:43:07;;;;;;;2.05;1.83;;;;;;;3.38;100.00;99267.03;4982494;28;20511;-79
2023/12/13 03:45:41;;;;;;;1.70;1.60;;;;;;;3.33;100.00;99255.44;4980239;28;20407;-80
2023/12/13 03:48:14;;;;;;;1.70;1.60;;;;;;;3.34;100.00;99262.44;4989173;28;20062;-80
2023/12/13 03:50:47;;;;;;;1.80;1.70;;;;;;;3.37;100.00;99254.66;4996627;28;20053;-80
2023/12/13 03:53:20;;;;;;;2.30;1.88;;;;;;;3.32;100.00;99260.03;4986475;28;20046;-80
2023/12/13 03:55:54;;;;;;;1.40;1.30;;;;;;;3.34;100.00;99262.44;4986177;28;20388;-80
2023/12/13 03:58:28;;;;;;;1.92;1.73;;;;;;;3.43;100.00;99254.69;4995273;28;20050;-79
2023/12/13 04:01:02;;;;;;;1.25;1.17;;;;;;;3.40;100.00;99259.50;4989032;28;20050;-80
2023/12/13 04:03:36;;;;;;;2.42;1.80;;;;;;;3.35;100.00;99262.19;4988202;28;20061;-80
2023/12/13 04:06:09;;;;;;;1.55;1.42;;;;;;;3.35;100.00;99258.69;4980892;28;20051;-79
2023/12/13 04:08:42;;;;;;;2.00;1.70;;;;;;;3.35;100.00;99262.19;4986025;28;20066;-78
2023/12/13 04:11:15;;;;;;;1.42;1.33;;;;;;;3.38;100.00;99255.47;4982836;28;20057;-78
2023/12/13 04:13:50;;;;;;;1.60;1.50;;;;;;;3.46;100.00;99249.56;4983279;28;20052;-80
2023/12/13 04:16:18;;;;;;;1.88;1.38;;;;;;;3.38;100.00;99250.06;4986701;28;20047;-81
2023/12/13 04:18:51;;;;;;;4.13;2.10;;;;;;;3.44;100.00;99243.66;4980330;28;20046;-81
2023/12/13 04:21:25;;;;;;;1.50;1.40;;;;;;;3.39;100.00;99251.69;4985965;28;20700;-81
2023/12/13 04:23:53;;;;;;;4.65;1.50;;;;;;;3.40;100.00;99251.44;4984163;28;20126;-81
2023/12/13 04:26:21;;;;;;;2.40;1.90;;;;;;;3.36;100.00;99250.34;4985946;28;20062;-81
2023/12/13 04:28:56;;;;;;;1.67;1.58;;;;;;;3.40;100.00;99245.25;4981398;28;20061;-81
2023/12/13 04:31:29;;;;;;;2.22;1.83;;;;;;;3.41;100.00;99252.22;4982127;28;20063;-81
2023/12/13 04:34:03;;;;;;;2.03;1.75;;;;;;;3.44;100.00;99257.09;4982834;28;20046;-81
2023/12/13 04:36:36;;;;;;;1.08;1.08;;;;;;;3.45;100.00;99252.50;4980090;28;20057;-81
2023/12/13 04:39:11;;;;;;;2.22;1.63;;;;;;;3.43;100.00;99250.09;4998311;28;20054;-81
2023/12/13 04:41:44;;;;;;;1.73;1.63;;;;;;;3.42;100.00;99244.97;4983510;28;20035;-80
2023/12/13 04:44:13;;;;;;;2.75;1.63;;;;;;;3.45;100.00;99247.94;4981794;28;20042;-81
2023/12/13 04:46:42;;;;;;;1.85;1.58;;;;;;;3.48;100.00;99251.97;4991994;28;20058;-81
2023/12/13 04:49:10;;;;;;;1.60;1.48;;;;;;;3.43;100.00;99255.47;4992766;28;20065;-81
2023/12/13 04:51:38;;;;;;;2.30;1.80;;;;;;;3.49;100.00;99254.38;4982419;28;20046;-81
2023/12/13 04:54:11;;;;;;;1.63;1.40;;;;;;;3.54;100.00;99254.41;4984446;28;20488;-81
2023/12/13 04:56:44;;;;;;;1.52;1.42;;;;;;;3.53;100.00;99252.78;4986758;28;20055;-81
2023/12/13 04:59:19;;;;;;;2.67;1.90;;;;;;;3.47;100.00;99261.94;4980160;28;20357;-81
2023/12/13 05:01:52;;;;;;;1.83;1.70;;;;;;;3.49;100.00;99251.69;4983534;28;20050;-81
2023/12/13 05:04:25;;;;;;;1.95;1.70;;;;;;;3.50;100.00;99253.31;4980576;28;20057;-81
2023/12/13 05:06:59;;;;;;;2.17;1.80;;;;;;;3.45;100.00;99261.38;4981677;28;20622;-81
2023/12/13 05:09:32;;;;;;;2.00;1.73;;;;;;;3.51;100.00;99254.16;4980293;28;20054;-81
2023/12/13 05:12:00;;;;;;;2.20;1.85;;;;;;;3.40;100.00;99256.81;4983595;28;20085;-81
2023/12/13 05:14:34;;;;;;;2.90;1.70;;;;;;;3.46;100.00;99243.38;4990089;28;20055;-81
2023/12/13 05:17:08;;;;;;;2.53;2.15;;;;;;;3.44;100.00;99257.09;5000340;28;20069;-80
2023/12/13 05:19:41;;;;;;;2.90;1.88;;;;;;;3.42;100.00;99248.47;4998436;28;20058;-80
2023/12/13 05:22:14;;;;;;;2.22;1.95;;;;;;;3.38;100.00;99247.38;4986174;28;20427;-81
2023/12/13 05:24:48;;;;;;;9.35;1.90;;;;;;;3.53;100.00;99244.72;4984827;28;20801;-80
2023/12/13 05:27:16;;;;;;;2.00;1.80;;;;;;;3.44;100.00;99249.03;4982665;28;20066;-81
2023/12/13 05:29:51;;;;;;;1.50;1.40;;;;;;;3.43;100.00;99244.72;4995010;28;20059;-81
2023/12/13 05:32:24;;;;;;;2.78;2.10;;;;;;;3.46;100.00;99246.88;4989140;28;20090;-81
2023/12/13 05:34:57;;;;;;;3.30;2.25;;;;;;;3.47;100.00;99251.16;4987788;28;20085;-81
2023/12/13 05:37:30;;;;;;;2.42;1.83;;;;;;;3.43;100.00;99246.59;4996773;28;20053;-80
2023/12/13 05:39:58;;;;;;;2.75;2.03;;;;;;;3.40;100.00;99253.31;4984555;28;20055;-81
2023/12/13 05:42:33;;;;;;;1.80;1.70;;;;;;;3.45;100.00;99249.81;4980291;28;20047;-81
2023/12/13 05:45:08;;;;;;;1.50;1.40;;;;;;;3.40;100.00;99250.63;4981329;28;20479;-80
2023/12/13 05:47:41;;;;;;;2.47;1.83;;;;;;;3.46;100.00;99246.06;4984159;28;20054;-80
2023/12/13 05:50:15;;;;;;;1.75;1.65;;;;;;;3.36;100.00;99244.97;4992839;28;20062;-81
2023/12/13 05:52:49;;;;;;;1.73;1.63;;;;;;;3.36;100.00;99249.56;4985382;28;20078;-81
2023/12/13 05:55:17;;;;;;;3.50;1.98;;;;;;;3.38;100.00;99258.16;4980766;28;20058;-81
2023/12/13 05:57:50;;;;;;;2.17;1.95;;;;;;;3.36;100.00;99258.41;4980344;28;20054;-81
2023/12/13 06:00:25;;;;;;;2.55;1.95;;;;;;;3.35;100.00;99262.19;4980102;28;20806;-81
2023/12/13 06:02:59;;;;;;;1.88;1.67;;;;;;;3.33;100.00;99253.56;4980181;28;20055;-81
2023/12/13 06:05:32;;;;;;;1.75;1.63;;;;;;;3.33;100.00;99260.81;4984281;28;20054;-81
2023/12/13 06:08:00;;;;;;;2.70;1.70;;;;;;;3.38;100.00;99258.16;4984449;28;20613;-81
2023/12/13 06:10:29;;;;;;;2.08;1.75;;;;;;;3.32;100.00;99259.22;4984384;28;20411;-81
2023/12/13 06:12:57;;;;;;;2.08;1.70;;;;;;;3.33;100.00;99268.88;4981332;28;20073;-81
2023/12/13 06:15:32;;;;;;;2.35;2.03;;;;;;;3.39;100.00;99267.84;4982432;28;20050;-80
2023/12/13 06:18:00;;;;;;;2.03;1.70;;;;;;;3.25;100.00;99269.44;4984381;28;20053;-80
2023/12/13 06:20:33;;;;;;;2.08;1.90;;;;;;;3.37;100.00;99267.28;4985429;28;20062;-81
2023/12/13 06:23:02;;;;;;;2.55;1.83;;;;;;;3.38;100.00;99266.22;4985718;28;20049;-81
2023/12/13 06:25:35;;;;;;;2.17;1.98;;;;;;;3.35;100.00;99281.00;4999170;28;20055;-81
2023/12/13 06:28:09;;;;;;;2.15;1.90;;;;;;;3.31;100.00;99276.44;4988755;28;20495;-81
2023/12/13 06:30:38;;;;;;;1.70;1.58;;;;;;;3.36;100.00;99281.81;4979992;28;20061;-80
2023/12/13 06:33:06;;;;;;;2.53;2.20;;;;;;;3.46;100.00;99275.66;4983228;28;20304;-80
2023/12/13 06:35:40;;;;;;;2.90;2.00;;;;;;;3.35;100.00;99277.50;4986742;28;20054;-81
2023/12/13 06:38:13;;;;;;;2.03;1.58;;;;;;;3.37;100.00;99269.97;4987746;28;20062;-81
2023/12/13 06:40:46;;;;;;;2.20;2.00;;;;;;;3.39;100.00;99278.59;4984529;28;20394;-81
2023/12/13 06:43:20;;;;;;;2.28;1.80;;;;;;;3.37;100.00;99278.88;4998706;28;20065;-81
2023/12/13 06:45:54;;;;;;;4.57;2.30;;;;;;;3.37;100.00;99280.72;4981501;28;20067;-80
2023/12/13 06:48:23;;;;;;;3.80;2.63;;;;;;;3.36;100.00;99277.25;4977771;28;20061;-80
2023/12/13 06:50:51;;;;;;;2.53;1.95;;;;;;;3.38;100.00;99283.19;4986482;28;20058;-80
2023/12/13 06:53:24;;;;;;;2.38;1.90;;;;;;;3.33;100.00;99283.16;4983546;28;20061;-81
2023/12/13 06:55:58;;;;;;;4.60;2.00;;;;;;;3.37;100.00;99280.72;4980548;28;20054;-81
2023/12/13 06:58:26;;;;;;;1.85;1.65;;;;;;;3.38;100.00;99283.19;4979257;28;20050;-80
2023/12/13 07:01:01;;;;;;;2.38;1.70;;;;;;;3.40;100.00;99281.00;4977905;28;20038;-80
2023/12/13 07:03:35;;;;;;;2.22;2.00;;;;;;;3.40;100.00;99280.22;4985124;28;20062;-81
2023/12/13 07:06:08;;;;;;;2.03;1.75;;;;;;;3.34;100.00;99283.97;4980940;28;20058;-80
2023/12/13 07:08:36;;;;;;;2.38;1.80;;;;;;;3.36;100.00;99289.88;4983731;28;20046;-80
2023/12/13 07:11:09;;;;;;;2.00;1.80;;;;;;;3.43;100.00;99287.75;4995952;28;20058;-81
2023/12/13 07:13:37;;;;;;;2.63;2.00;;;;;;;3.39;100.00;99292.03;4992959;28;20513;-81
2023/12/13 07:16:08;;;;;;;1.95;1.77;;;;;;;3.37;100.00;99300.38;4977382;28;20622;-79
2023/12/13 07:18:41;;;;;;;1.85;1.75;;;;;;;3.37;100.00;99299.56;4977786;28;20037;-81
2023/12/13 07:21:14;;;;;;;1.90;1.80;;;;;;;3.31;100.00;99296.03;4978095;28;20074;-80
2023/12/13 07:23:42;;;;;;;1.85;1.73;;;;;;;3.45;100.00;99299.03;4995608;28;20062;-81
2023/12/13 07:26:11;;;;;;;2.22;1.98;;;;;;;3.41;100.00;99300.63;4996110;28;20062;-80
2023/12/13 07:28:44;;;;;;;2.00;1.80;;;;;;;3.32;100.00;99296.88;4993630;28;20699;-80
2023/12/13 07:31:18;;;;;;;1.80;1.70;;;;;;;3.37;100.00;99302.25;4980051;28;20054;-80
2023/12/13 07:33:51;;;;;;;2.17;1.98;;;;;;;3.35;100.00;99299.81;4981634;28;20561;-80
2023/12/13 07:36:25;;;;;;;1.92;1.65;;;;;;;3.32;100.00;99294.97;4980260;28;20066;-80
2023/12/13 07:38:58;;;;;;;1.77;1.55;;;;;;;3.36;100.00;99290.69;4975091;28;20054;-80
2023/12/13 07:41:31;;;;;;;2.92;1.80;;;;;;;3.33;100.00;99293.91;4979381;28;20514;-80
2023/12/13 07:44:04;;;;;;;2.58;2.00;;;;;;;3.34;100.00;99289.34;4979604;28;20050;-80
2023/12/13 07:46:34;;;;;;;3.47;2.05;;;;;;;3.37;100.00;99299.56;4976585;28;20062;-81
2023/12/13 07:49:08;;;;;;;3.00;2.10;;;;;;;3.28;100.00;99301.16;4975255;28;20043;-80
2023/12/13 07:51:41;;;;;;;2.13;1.92;;;;;;;3.33;100.00;99296.59;4976569;28;20061;-80
2023/12/13 07:54:16;;;;;;;1.77;1.50;;;;;;;3.31;100.00;99311.38;4975172;28;20086;-80
2023/12/13 07:56:52;;;;;;;2.50;2.00;;;;;;;3.36;100.00;99304.13;4982742;28;20082;-80
2023/12/13 07:59:20;;;;;;;2.25;2.05;;;;;;;3.42;100.00;99304.94;4978851;28;20050;-80
2023/12/13 08:01:50;;;;;;;4.10;2.38;;;;;;;3.30;100.00;99309.75;4979049;28;20062;-80
2023/12/13 08:04:23;;;;;;;2.40;2.13;;;;;;;3.36;100.00;99314.09;4976394;28;20061;-80
2023/12/13 08:06:56;;;;;;;2.45;2.17;;;;;;;3.38;100.00;99311.94;4976303;28;20054;-80
2023/12/13 08:09:25;;;;;;;2.15;1.95;;;;;;;3.36;100.00;99327.53;4979461;28;20050;-81
2023/12/13 08:11:58;;;;;;;2.40;1.88;;;;;;;3.38;100.00;99328.06;4982674;28;20055;-80
2023/12/13 08:14:32;;;;;;;2.83;2.03;;;;;;;3.33;100.00;99326.19;4984442;28;20062;-80
2023/12/13 08:17:08;;;;;;;2.88;1.80;;;;;;;3.42;100.00;99336.44;4979976;28;20054;-81
2023/12/13 08:19:42;;;;;;;1.85;1.50;;;;;;;3.44;100.00;99326.19;4980171;28;20047;-80
2023/12/13 08:22:16;;;;;;;2.08;1.88;;;;;;;3.32;100.00;99321.06;4978933;28;20058;-80
2023/12/13 08:24:49;;;;;;;2.10;1.90;;;;;;;3.38;100.00;99328.06;4995016;28;20062;-81
2023/12/13 08:27:17;;;;;;;2.15;1.92;;;;;;;3.42;100.00;99333.72;4980820;28;20054;-85
2023/12/13 08:29:50;;;;;;;2.38;2.03;;;;;;;3.39;100.00;99330.47;4978556;28;20786;-81
2023/12/13 08:32:25;;;;;;;2.38;2.08;;;;;;;3.50;100.00;99330.53;4979020;28;20062;-81
2023/12/13 08:34:53;;;;;;;2.47;2.25;;;;;;;3.44;100.00;99328.88;4976798;28;20057;-80
2023/12/13 08:37:27;;;;;;;2.22;2.00;;;;;;;3.48;100.00;99333.47;4978511;28;20065;-81
2023/12/13 08:39:55;;;;;;;3.38;1.80;;;;;;;3.48;100.00;99335.34;4979480;28;20042;-80
2023/12/13 08:42:31;;;;;;;2.75;2.28;;;;;;;3.53;100.00;99330.78;4926060;28;20057;-80
2023/12/13 08:45:06;;;;;;;2.10;1.90;;;;;;;3.38;100.00;99336.97;4961145;28;20054;-80
2023/12/13 08:47:40;;;;;;;2.30;1.95;;;;;;;3.39;100.00;99335.06;4969380;28;20077;-81
2023/12/13 08:50:09;;;;;;;1.85;1.73;;;;;;;3.38;100.00;99342.34;4957871;28;20738;-80
2023/12/13 08:52:42;;;;;;;2.63;2.00;;;;;;;3.37;100.00;99347.94;4962796;28;20067;-81
2023/12/13 08:55:10;;;;;;;3.58;2.03;;;;;;;3.31;100.00;99346.34;4960817;28;20069;-80
2023/12/13 08:57:43;;;;;;;2.17;1.80;;;;;;;3.38;100.00;99350.41;4958685;28;20054;-80
2023/12/13 09:00:17;;;;;;;1.70;1.60;;;;;;;3.49;100.00;99347.72;4967492;28;20057;-80
2023/12/13 09:02:46;;;;;;;4.65;2.20;;;;;;;3.45;100.00;99350.13;4969946;28;20872;-81
2023/12/13 09:05:19;;;;;;;2.17;1.85;;;;;;;3.43;100.00;99354.97;4955815;28;20065;-80
2023/12/13 09:07:53;;;;;;;1.98;1.80;;;;;;;3.37;100.00;99353.34;4959882;28;22400;-80
2023/12/13 09:10:21;;;;;;;2.10;1.90;;;;;;;3.46;100.00;99353.66;4958017;28;20050;-81
2023/12/13 09:12:52;;;;;;;2.00;1.55;;;;;;;3.45;100.00;99354.72;4957553;28;20740;-80
2023/12/13 09:15:21;;;;;;;1.95;1.75;;;;;;;3.45;100.00;99362.78;4962958;28;20058;-81
2023/12/13 09:17:55;;;;;;;5.00;2.00;;;;;;;3.46;100.00;99362.50;4962741;28;20054;-81
2023/12/13 09:20:24;;;;;;;2.90;1.83;;;;;;;3.46;100.00;99361.72;4959691;28;20057;-81
2023/12/13 09:22:57;;;;;;;3.17;2.17;;;;;;;3.45;100.00;99357.41;4959162;28;20054;-82
2023/12/13 09:25:26;;;;;;;2.75;2.05;;;;;;;3.42;100.00;99360.63;4959096;28;20688;-80
2023/12/13 09:27:54;;;;;;;3.05;1.95;;;;;;;3.45;100.00;99366.25;4958895;28;20058;-80
2023/12/13 09:30:22;;;;;;;2.10;1.77;;;;;;;3.46;100.00;99364.41;4975685;28;20053;-80
2023/12/13 09:32:57;;;;;;;2.30;1.90;;;;;;;3.54;100.00;99367.38;4967645;28;20050;-81
2023/12/13 09:35:30;;;;;;;2.50;1.95;;;;;;;3.52;100.00;99371.41;4965337;28;20058;-81
2023/12/13 09:38:04;;;;;;;2.15;1.60;;;;;;;3.50;100.00;99368.97;4962580;28;21262;-80
2023/12/13 09:40:38;;;;;;;4.90;2.10;;;;;;;3.55;100.00;99366.31;4965108;28;20046;-81
2023/12/13 09:43:12;;;;;;;1.92;1.70;;;;;;;3.57;100.00;99366.84;4948964;28;20065;-81
2023/12/13 09:45:47;;;;;;;1.35;1.27;;;;;;;3.65;100.00;99373.59;4963579;28;21049;-80
2023/12/13 09:48:21;;;;;;;1.73;1.63;;;;;;;3.56;100.00;99378.69;4961519;28;20948;-81
2023/12/13 09:50:58;;;;;;;1.58;1.48;;;;;;;3.68;100.00;99374.94;4959736;28;20060;-81
2023/12/13 09:53:34;;;;;;;1.75;1.65;;;;;;;3.65;100.00;99380.88;4962362;28;20069;-80
2023/12/13 09:56:09;;;;;;;1.85;1.67;;;;;;;3.69;100.00;99380.06;4962237;28;20065;-81
2023/12/13 09:58:42;;;;;;;2.40;1.92;;;;;;;3.71;100.00;99380.59;4966077;28;20560;-80
2023/12/13 10:01:12;;;;;;;1.42;1.33;;;;;;;3.69;100.00;99373.88;4970653;28;20058;-80
2023/12/13 10:03:47;;;;;;;1.40;1.30;;;;;;;3.69;100.00;99379.25;4972430;28;20050;-80
2023/12/13 10:06:20;;;;;;;2.08;1.88;;;;;;;3.57;100.00;99380.28;4974344;28;20050;-81
2023/12/13 10:08:54;;;;;;;1.50;1.40;;;;;;;3.64;100.00;99380.03;4974594;28;20058;-80
2023/12/13 10:11:22;;;;;;;1.60;1.50;;;;;;;3.56;100.00;99378.69;4963100;28;20046;-80
2023/12/13 10:13:56;;;;;;;1.65;1.55;;;;;;;3.57;100.00;99382.97;4975223;28;20052;-81
2023/12/13 10:16:29;;;;;;;1.60;1.50;;;;;;;3.65;100.00;99383.56;4974822;28;20051;-81
2023/12/13 10:19:05;;;;;;;1.45;1.35;;;;;;;3.60;100.00;99387.03;4970397;28;20065;-80
2023/12/13 10:21:34;;;;;;;2.10;1.90;;;;;;;3.74;100.00;99387.31;4964543;28;20122;-80
2023/12/13 10:24:08;;;;;;;3.28;1.98;;;;;;;3.60;100.00;99384.34;4970137;28;20065;-80
2023/12/13 10:26:36;;;;;;;1.48;1.38;;;;;;;3.52;100.00;99383.00;4966540;28;20058;-79
2023/12/13 10:29:05;;;;;;;2.05;1.92;;;;;;;3.48;100.00;99392.66;4971719;28;20057;-80
2023/12/13 10:31:38;;;;;;;2.15;1.83;;;;;;;3.58;100.00;99389.19;4971749;28;20051;-81
2023/12/13 10:34:07;;;;;;;1.52;1.42;;;;;;;3.60;100.00;99391.59;4971954;28;21811;-79
2023/12/13 10:36:36;;;;;;;1.65;1.55;;;;;;;3.58;100.00;99391.88;4961045;28;20061;-80
2023/12/13 10:39:13;;;;;;;1.80;1.35;;;;;;;3.67;100.00;99392.94;4963412;28;20061;-80
2023/12/13 10:41:51;;;;;;;3.08;1.45;;;;;;;3.70;100.00;99387.06;4969968;28;20062;-80
2023/12/13 10:44:22;;;;;;;1.55;1.45;;;;;;;3.50;100.00;99395.06;4964041;28;20144;-80
2023/12/13 10:46:58;;;;;;;1.98;1.80;;;;;;;3.49;100.00;99388.88;4961747;28;20062;-80
2023/12/13 10:49:29;;;;;;;1.80;1.60;;;;;;;3.62;100.00;99392.13;4963839;28;20058;-80
2023/12/13 10:52:06;;;;;;;6.82;1.50;;;;;;;3.64;100.00;99393.50;4960518;28;20073;-80
2023/12/13 10:54:41;;;;;;;1.77;1.67;;;;;;;3.55;100.00;99385.13;4961545;28;20054;-80
2023/12/13 10:57:15;;;;;;;1.63;1.52;;;;;;;3.62;100.00;99390.28;4968201;28;20065;-80
2023/12/13 10:59:44;;;;;;;1.80;1.70;;;;;;;3.58;100.00;99389.19;4961583;28;20062;-79
2023/12/13 11:02:16;;;;;;;1.45;1.35;;;;;;;3.45;100.00;99390.47;4960480;28;20049;-80
2023/12/13 11:04:51;;;;;;;1.60;1.50;;;;;;;3.58;100.00;99389.97;4971261;28;20046;-79
2023/12/13 11:07:25;;;;;;;1.50;1.40;;;;;;;3.58;100.00;99392.66;4960671;28;20065;-79
2023/12/13 11:10:01;;;;;;;2.38;1.65;;;;;;;3.61;100.00;99390.53;4973631;28;20886;-80
2023/12/13 11:12:45;;;;;;;1.60;1.50;;;;;;;3.67;100.00;99395.66;4971054;28;20057;-80
2023/12/13 11:15:19;;;;;;;1.50;1.30;;;;;;;3.65;100.00;99397.81;4971601;28;20861;-80
2023/12/13 11:17:55;;;;;;;1.50;1.40;;;;;;;3.70;100.00;99394.31;4962550;28;20054;-80
2023/12/13 11:20:30;;;;;;;1.55;1.45;;;;;;;3.69;100.00;99400.78;4966467;28;20049;-79
2023/12/13 11:22:58;;;;;;;1.52;1.42;;;;;;;3.70;100.00;99402.38;4971771;28;20055;-80
2023/12/13 11:25:35;;;;;;;1.60;1.50;;;;;;;3.68;100.00;99396.47;4963597;28;20645;-80
2023/12/13 11:28:08;;;;;;;1.65;1.55;;;;;;;3.63;100.00;99396.44;4964450;28;20465;-80
2023/12/13 11:30:42;;;;;;;1.48;1.38;;;;;;;3.66;100.00;99395.91;4962771;28;20055;-80
2023/12/13 11:33:17;;;;;;;1.60;1.42;;;;;;;3.60;100.00;99403.16;4960362;28;21215;-80
2023/12/13 11:35:47;;;;;;;1.60;1.50;;;;;;;3.54;100.00;99407.72;4954016;28;20054;-80
2023/12/13 11:38:21;;;;;;;2.17;1.55;;;;;;;3.53;100.00;99405.31;4963859;28;20054;-81
2023/12/13 11:40:56;;;;;;;1.67;1.58;;;;;;;3.68;100.00;99410.72;4966713;28;20057;-80
2023/12/13 11:43:24;;;;;;;1.42;1.33;;;;;;;3.63;100.00;99412.59;4963439;28;20073;-81
2023/12/13 11:45:57;;;;;;;1.75;1.58;;;;;;;3.68;100.00;99416.09;4972448;28;20066;-80
2023/12/13 11:48:31;;;;;;;1.58;1.48;;;;;;;3.60;100.00;99408.53;4976097;28;20059;-83
2023/12/13 11:51:01;;;;;;;2.17;1.65;;;;;;;3.70;100.00;99407.75;4967907;28;20676;-81
2023/12/13 11:53:34;;;;;;;1.73;1.58;;;;;;;3.65;100.00;99416.63;4968523;28;20058;-81
2023/12/13 11:56:09;;;;;;;1.55;1.30;;;;;;;3.63;100.00;99413.38;4974531;28;20057;-82